Time;durP1;ratioP1;P1;durP2;ratioP2;P2;SDS_P1;SDS_P2;PMS_P1;PMS_P2;Temp;Humidity;BMP_temperature;BMP_pressure;BME280_temperature;BME280_humidity;BME280_pressure;Samples;Min_cycle;Max_cycle;Signal;HPM_P1;HPM_P2
2021/09/15 00:00:35;;;;;;;15.88;10.57;;;;;;;;;;4747907;30;20060;-86
2021/09/15 00:03:01;;;;;;;13.52;10.52;;;;;;;;;;4772495;30;20039;-84
2021/09/15 00:05:26;;;;;;;11.77;9.88;;;;;;;;;;4788560;30;20507;-83
2021/09/15 00:07:52;;;;;;;13.45;10.30;;;;;;;;;;4792246;29;20047;-86
2021/09/15 00:10:17;;;;;;;12.48;9.88;;;;;;;;;;4776170;30;20054;-84
2021/09/15 00:12:42;;;;;;;14.60;9.30;;;;;;;;;;4773005;30;20075;-84
2021/09/15 00:15:08;;;;;;;13.20;9.35;;;;;;;;;;4757381;30;20389;-85
2021/09/15 00:17:34;;;;;;;12.45;10.10;;;;;;;;;;4790804;30;20472;-84
2021/09/15 00:20:00;;;;;;;12.02;9.35;;;;;;;;;;4790371;30;20035;-83
2021/09/15 00:22:25;;;;;;;11.95;9.10;;;;;;;;;;4785405;30;20031;-84
2021/09/15 00:24:51;;;;;;;10.60;9.13;;;;;;;;;;4774335;30;20118;-85
2021/09/15 00:27:16;;;;;;;9.57;8.38;;;;;;;;;;4774731;30;20039;-84
2021/09/15 00:29:42;;;;;;;11.27;9.05;;;;;;;;;;4775466;30;20511;-84
2021/09/15 00:32:07;;;;;;;11.35;8.52;;;;;;;;;;4770541;30;20483;-86
2021/09/15 00:34:33;;;;;;;11.00;8.73;;;;;;;;;;4774566;30;20061;-84
2021/09/15 00:36:59;;;;;;;12.15;9.20;;;;;;;;;;4788873;30;20031;-84
2021/09/15 00:39:25;;;;;;;12.00;9.13;;;;;;;;;;4750702;30;20035;-84
2021/09/15 00:41:51;;;;;;;11.73;8.27;;;;;;;;;;4772038;30;20035;-85
2021/09/15 00:44:16;;;;;;;12.75;8.68;;;;;;;;;;4787634;30;20041;-84
2021/09/15 00:46:42;;;;;;;10.40;8.00;;;;;;;;;;4757759;30;20038;-86
2021/09/15 00:49:09;;;;;;;12.27;7.72;;;;;;;;;;4772651;30;20917;-84
2021/09/15 00:51:42;;;;;;;11.07;8.40;;;;;;;;;;4772946;30;20042;-84
2021/09/15 00:54:08;;;;;;;10.07;8.35;;;;;;;;;;4775167;30;21025;-86
2021/09/15 00:56:35;;;;;;;11.38;8.02;;;;;;;;;;4788293;30;20118;-84
2021/09/15 00:59:01;;;;;;;12.23;8.27;;;;;;;;;;4786838;29;20036;-84
2021/09/15 01:01:27;;;;;;;11.35;7.97;;;;;;;;;;4789429;30;20579;-84
2021/09/15 01:03:52;;;;;;;9.98;7.95;;;;;;;;;;4789919;29;20043;-85
2021/09/15 01:06:18;;;;;;;10.70;8.40;;;;;;;;;;4757926;30;20043;-84
2021/09/15 01:08:43;;;;;;;9.75;7.80;;;;;;;;;;4774489;30;20077;-84
2021/09/15 01:11:10;;;;;;;11.43;8.15;;;;;;;;;;4773303;30;20055;-84
2021/09/15 01:13:37;;;;;;;10.60;7.85;;;;;;;;;;4758323;30;20055;-84
2021/09/15 01:16:05;;;;;;;9.55;7.78;;;;;;;;;;4773600;30;20038;-84
2021/09/15 01:18:30;;;;;;;8.93;7.57;;;;;;;;;;4773169;30;20061;-84
2021/09/15 01:20:56;;;;;;;13.38;7.50;;;;;;;;;;4773423;30;20111;-84
2021/09/15 01:23:23;;;;;;;9.57;7.72;;;;;;;;;;4787022;30;20575;-84
2021/09/15 01:25:48;;;;;;;11.40;8.38;;;;;;;;;;4787572;30;20031;-86
2021/09/15 01:28:14;;;;;;;10.85;7.57;;;;;;;;;;4785556;30;20042;-84
2021/09/15 01:30:40;;;;;;;9.15;7.32;;;;;;;;;;4755694;30;20149;-84
2021/09/15 01:33:10;;;;;;;11.55;7.70;;;;;;;;;;4787862;30;20555;-84
2021/09/15 01:35:35;;;;;;;10.63;7.45;;;;;;;;;;4787240;30;20507;-84
2021/09/15 01:38:01;;;;;;;9.35;7.80;;;;;;;;;;4769784;30;20122;-84
2021/09/15 01:40:27;;;;;;;11.32;7.60;;;;;;;;;;4779788;30;20399;-85
2021/09/15 01:42:53;;;;;;;8.85;7.63;;;;;;;;;;4772180;30;20046;-84
2021/09/15 01:45:18;;;;;;;10.77;7.50;;;;;;;;;;4776915;30;20039;-84
2021/09/15 01:47:44;;;;;;;10.15;7.93;;;;;;;;;;4772554;30;20444;-85
2021/09/15 01:50:10;;;;;;;10.90;8.00;;;;;;;;;;4772901;30;20038;-84
2021/09/15 01:52:35;;;;;;;11.50;7.43;;;;;;;;;;4772412;30;20043;-84
2021/09/15 01:55:01;;;;;;;12.15;8.05;;;;;;;;;;4773131;30;20050;-85
2021/09/15 01:57:26;;;;;;;9.75;7.68;;;;;;;;;;4772797;30;20408;-85
2021/09/15 01:59:51;;;;;;;10.32;7.45;;;;;;;;;;4761354;30;20031;-84
2021/09/15 02:02:17;;;;;;;11.43;8.18;;;;;;;;;;4772632;30;20050;-84
2021/09/15 02:04:42;;;;;;;11.10;7.22;;;;;;;;;;4771476;30;20053;-85
2021/09/15 02:07:09;;;;;;;10.15;7.70;;;;;;;;;;4772450;30;20917;-83
2021/09/15 02:09:35;;;;;;;9.98;7.43;;;;;;;;;;4787725;30;20039;-84
2021/09/15 02:12:00;;;;;;;11.23;7.82;;;;;;;;;;4788397;29;20049;-83
2021/09/15 02:14:26;;;;;;;11.25;8.35;;;;;;;;;;4783258;30;20035;-84
2021/09/15 02:16:52;;;;;;;9.18;7.40;;;;;;;;;;4783901;30;20034;-85
2021/09/15 02:19:18;;;;;;;12.75;7.78;;;;;;;;;;4767918;30;20147;-84
2021/09/15 02:21:44;;;;;;;10.20;8.27;;;;;;;;;;4788059;30;20077;-84
2021/09/15 02:24:09;;;;;;;10.27;8.30;;;;;;;;;;4772201;30;20449;-84
2021/09/15 02:26:35;;;;;;;10.20;7.40;;;;;;;;;;4787184;30;20130;-85
2021/09/15 02:29:03;;;;;;;10.30;7.90;;;;;;;;;;4786841;30;20055;-83
2021/09/15 02:31:29;;;;;;;10.20;7.95;;;;;;;;;;4772807;30;20114;-85
2021/09/15 02:33:54;;;;;;;9.35;7.63;;;;;;;;;;4758189;30;20042;-84
2021/09/15 02:36:20;;;;;;;10.38;7.70;;;;;;;;;;4787652;30;20408;-83
2021/09/15 02:38:47;;;;;;;9.50;7.05;;;;;;;;;;4786990;30;20111;-84
2021/09/15 02:41:13;;;;;;;10.10;7.63;;;;;;;;;;4772273;30;20035;-84
2021/09/15 02:43:38;;;;;;;11.82;7.70;;;;;;;;;;4786206;30;20033;-83
2021/09/15 02:46:04;;;;;;;10.75;7.95;;;;;;;;;;4769680;30;20043;-85
2021/09/15 02:48:29;;;;;;;9.32;7.20;;;;;;;;;;4770583;30;20043;-84
2021/09/15 02:50:55;;;;;;;10.57;8.30;;;;;;;;;;4765437;30;20067;-83
2021/09/15 02:53:20;;;;;;;9.68;7.65;;;;;;;;;;4772278;30;20388;-83
2021/09/15 02:55:46;;;;;;;10.45;7.88;;;;;;;;;;4787918;30;20126;-85
2021/09/15 02:58:11;;;;;;;8.80;7.70;;;;;;;;;;4770297;30;20027;-85
2021/09/15 03:00:37;;;;;;;10.27;7.80;;;;;;;;;;4784178;30;20502;-85
2021/09/15 03:03:03;;;;;;;8.32;7.10;;;;;;;;;;4787298;30;20110;-84
2021/09/15 03:05:30;;;;;;;12.15;8.30;;;;;;;;;;4786544;29;20491;-85
2021/09/15 03:07:55;;;;;;;9.60;7.60;;;;;;;;;;4787245;30;20039;-84
2021/09/15 03:10:21;;;;;;;9.30;7.15;;;;;;;;;;4787377;30;20028;-85
2021/09/15 03:12:46;;;;;;;9.07;7.57;;;;;;;;;;4773116;30;20039;-84
2021/09/15 03:15:12;;;;;;;10.38;7.63;;;;;;;;;;4772272;30;20047;-86
2021/09/15 03:17:37;;;;;;;10.18;8.02;;;;;;;;;;4766236;30;20441;-84
2021/09/15 03:20:05;;;;;;;11.68;7.97;;;;;;;;;;4756036;30;20054;-84
2021/09/15 03:22:30;;;;;;;9.93;7.93;;;;;;;;;;4774497;30;20039;-85
2021/09/15 03:24:56;;;;;;;10.45;8.23;;;;;;;;;;4761106;30;20385;-84
2021/09/15 03:27:21;;;;;;;9.18;8.23;;;;;;;;;;4789875;30;20400;-84
2021/09/15 03:29:46;;;;;;;9.57;8.02;;;;;;;;;;4775832;30;20069;-85
2021/09/15 03:32:12;;;;;;;10.52;8.10;;;;;;;;;;4757058;30;20039;-85
2021/09/15 03:34:37;;;;;;;11.75;8.75;;;;;;;;;;4775414;30;20035;-84
2021/09/15 03:37:03;;;;;;;12.80;9.27;;;;;;;;;;4793387;29;20039;-84
2021/09/15 03:39:28;;;;;;;16.63;9.07;;;;;;;;;;4781282;30;20031;-85
2021/09/15 03:41:54;;;;;;;10.00;8.82;;;;;;;;;;4776016;30;20031;-84
2021/09/15 03:44:19;;;;;;;9.82;8.25;;;;;;;;;;4791429;30;20106;-85
2021/09/15 03:46:45;;;;;;;11.40;9.82;;;;;;;;;;4789767;30;20071;-85
2021/09/15 03:49:10;;;;;;;10.52;9.27;;;;;;;;;;4761591;30;20081;-85
2021/09/15 03:51:36;;;;;;;10.25;8.95;;;;;;;;;;4775201;30;20130;-84
2021/09/15 03:54:01;;;;;;;12.82;10.07;;;;;;;;;;4773943;30;20031;-84
2021/09/15 03:56:26;;;;;;;11.80;9.77;;;;;;;;;;4775479;30;20039;-85
2021/09/15 03:58:52;;;;;;;14.18;10.20;;;;;;;;;;4772836;30;20042;-84
2021/09/15 04:01:17;;;;;;;13.07;10.07;;;;;;;;;;4775972;30;20031;-84
2021/09/15 04:03:43;;;;;;;13.13;9.85;;;;;;;;;;4774464;30;20031;-84
2021/09/15 04:06:08;;;;;;;10.95;9.63;;;;;;;;;;4789628;29;20476;-84
2021/09/15 04:08:34;;;;;;;14.48;9.85;;;;;;;;;;4775222;30;20039;-83
2021/09/15 04:10:59;;;;;;;11.52;9.73;;;;;;;;;;4774905;30;20507;-85
2021/09/15 04:13:26;;;;;;;11.43;9.23;;;;;;;;;;4789690;30;20035;-84
2021/09/15 04:15:52;;;;;;;14.45;9.98;;;;;;;;;;4773825;30;20038;-85
2021/09/15 04:18:17;;;;;;;11.48;9.80;;;;;;;;;;4774627;30;20504;-85
2021/09/15 04:20:44;;;;;;;11.88;8.77;;;;;;;;;;4791440;30;20039;-85
2021/09/15 04:33:46;;;;;;;13.30;9.00;;;;;;;;;;4772633;30;20066;-84
2021/09/15 04:36:11;;;;;;;12.77;9.23;;;;;;;;;;4759562;30;20502;-84
2021/09/15 04:38:37;;;;;;;12.00;9.68;;;;;;;;;;4772296;30;20072;-84
2021/09/15 04:41:03;;;;;;;10.23;8.80;;;;;;;;;;4761317;30;20032;-85
2021/09/15 04:43:28;;;;;;;12.45;8.73;;;;;;;;;;4773185;30;20035;-85
2021/09/15 04:45:54;;;;;;;10.65;9.13;;;;;;;;;;4774733;30;20039;-84
2021/09/15 04:48:19;;;;;;;10.70;8.65;;;;;;;;;;4774194;30;20039;-83
2021/09/15 04:50:44;;;;;;;11.35;9.25;;;;;;;;;;4771856;30;20036;-84
2021/09/15 04:53:10;;;;;;;10.95;8.48;;;;;;;;;;4772130;30;20039;-84
2021/09/15 04:55:35;;;;;;;14.00;8.30;;;;;;;;;;4754801;30;20055;-85
2021/09/15 04:58:01;;;;;;;10.05;7.55;;;;;;;;;;4773502;30;20043;-83
2021/09/15 05:00:27;;;;;;;11.93;8.95;;;;;;;;;;4774775;30;20110;-85
2021/09/15 05:02:52;;;;;;;11.70;8.82;;;;;;;;;;4787001;30;20028;-84
2021/09/15 05:05:18;;;;;;;9.77;8.43;;;;;;;;;;4767227;30;20076;-84
2021/09/15 05:07:43;;;;;;;10.93;8.77;;;;;;;;;;4788096;30;20538;-84
2021/09/15 05:10:09;;;;;;;11.88;8.60;;;;;;;;;;4749734;30;20071;-85
2021/09/15 05:12:35;;;;;;;10.75;8.30;;;;;;;;;;4773903;30;20492;-85
2021/09/15 05:15:00;;;;;;;11.75;8.68;;;;;;;;;;4773233;30;20039;-84
2021/09/15 05:17:29;;;;;;;11.73;8.80;;;;;;;;;;4774452;30;20036;-84
2021/09/15 05:19:54;;;;;;;11.30;9.18;;;;;;;;;;4771286;30;20484;-84
2021/09/15 05:22:20;;;;;;;10.98;9.73;;;;;;;;;;4759185;30;20039;-84
2021/09/15 05:24:45;;;;;;;11.73;8.52;;;;;;;;;;4774030;30;20042;-86
2021/09/15 05:27:11;;;;;;;10.32;8.20;;;;;;;;;;4745043;30;20039;-84
2021/09/15 05:29:36;;;;;;;9.63;8.50;;;;;;;;;;4759377;30;20473;-86
2021/09/15 05:32:02;;;;;;;11.43;9.00;;;;;;;;;;4792983;29;20039;-84
2021/09/15 05:34:28;;;;;;;10.60;8.95;;;;;;;;;;4774388;30;20537;-85
2021/09/15 05:36:53;;;;;;;11.02;8.82;;;;;;;;;;4771027;30;20035;-84
2021/09/15 05:39:19;;;;;;;13.07;8.43;;;;;;;;;;4774239;30;20039;-84
2021/09/15 05:41:44;;;;;;;9.25;8.23;;;;;;;;;;4769479;30;20118;-85
2021/09/15 05:44:10;;;;;;;12.35;9.95;;;;;;;;;;4789181;30;20035;-83
2021/09/15 05:46:36;;;;;;;12.85;8.35;;;;;;;;;;4772986;30;20058;-84
2021/09/15 05:49:03;;;;;;;11.77;9.43;;;;;;;;;;4790524;30;20067;-85
2021/09/15 05:51:29;;;;;;;10.15;8.60;;;;;;;;;;4775349;30;20506;-84
2021/09/15 05:53:55;;;;;;;13.10;8.68;;;;;;;;;;4774841;30;20035;-85
2021/09/15 05:56:20;;;;;;;11.13;8.65;;;;;;;;;;4755008;30;20035;-85
2021/09/15 05:58:45;;;;;;;10.88;9.20;;;;;;;;;;4788791;30;20107;-84
2021/09/15 06:01:11;;;;;;;11.95;8.65;;;;;;;;;;4758849;30;21863;-84
2021/09/15 06:03:36;;;;;;;10.73;8.93;;;;;;;;;;4758576;30;20039;-85
2021/09/15 06:06:02;;;;;;;11.30;9.00;;;;;;;;;;4773436;30;20035;-86
2021/09/15 06:08:27;;;;;;;11.40;9.02;;;;;;;;;;4772666;30;20400;-84
2021/09/15 06:10:53;;;;;;;11.57;9.55;;;;;;;;;;4776855;30;20047;-85
2021/09/15 06:13:18;;;;;;;10.77;9.45;;;;;;;;;;4758346;30;20108;-84
2021/09/15 06:15:44;;;;;;;11.52;8.85;;;;;;;;;;4758653;30;20047;-84
2021/09/15 06:18:09;;;;;;;10.15;9.10;;;;;;;;;;4770225;30;20404;-84
2021/09/15 06:20:34;;;;;;;12.40;9.85;;;;;;;;;;4770125;30;20039;-84
2021/09/15 06:23:00;;;;;;;12.30;9.63;;;;;;;;;;4785210;30;20075;-85
2021/09/15 06:25:27;;;;;;;12.45;9.00;;;;;;;;;;4773186;30;20482;-83
2021/09/15 06:27:54;;;;;;;9.95;8.68;;;;;;;;;;4787620;30;20388;-86
2021/09/15 06:30:20;;;;;;;12.50;9.20;;;;;;;;;;4772983;30;20551;-84
2021/09/15 06:32:45;;;;;;;14.10;9.90;;;;;;;;;;4773186;30;20177;-83
2021/09/15 06:35:11;;;;;;;11.32;8.98;;;;;;;;;;4758495;30;20031;-86
2021/09/15 06:37:37;;;;;;;11.73;9.43;;;;;;;;;;4773330;30;20609;-84
2021/09/15 06:40:04;;;;;;;12.95;8.88;;;;;;;;;;4789629;30;20411;-84
2021/09/15 06:42:29;;;;;;;11.00;8.35;;;;;;;;;;4787830;30;20113;-84
2021/09/15 06:44:55;;;;;;;12.85;8.88;;;;;;;;;;4757895;30;22005;-86
2021/09/15 06:47:21;;;;;;;12.27;9.00;;;;;;;;;;4753318;30;20396;-87
2021/09/15 06:49:46;;;;;;;13.45;9.07;;;;;;;;;;4786996;30;20407;-84
2021/09/15 06:52:11;;;;;;;10.65;9.55;;;;;;;;;;4772492;30;20035;-86
2021/09/15 06:54:37;;;;;;;12.70;9.60;;;;;;;;;;4772388;30;20150;-84
2021/09/15 06:57:03;;;;;;;11.80;9.57;;;;;;;;;;4772071;30;20023;-87
2021/09/15 06:59:28;;;;;;;13.93;10.40;;;;;;;;;;4772721;30;20466;-86
2021/09/15 07:01:53;;;;;;;14.98;10.00;;;;;;;;;;4772365;30;20035;-84
2021/09/15 07:04:19;;;;;;;13.30;10.88;;;;;;;;;;4769562;30;20534;-87
2021/09/15 07:06:44;;;;;;;13.05;10.80;;;;;;;;;;4729214;30;20070;-84
2021/09/15 07:09:10;;;;;;;13.43;11.43;;;;;;;;;;4777219;29;20039;-86
2021/09/15 07:11:36;;;;;;;15.32;10.75;;;;;;;;;;4770987;30;20091;-83
2021/09/15 07:14:03;;;;;;;14.73;11.65;;;;;;;;;;4786954;30;20533;-83
2021/09/15 07:16:30;;;;;;;13.52;10.90;;;;;;;;;;4772607;30;20472;-83
2021/09/15 07:18:55;;;;;;;15.35;11.60;;;;;;;;;;4771829;30;20100;-83
2021/09/15 07:21:21;;;;;;;13.07;11.10;;;;;;;;;;4772059;30;20035;-85
2021/09/15 07:23:46;;;;;;;13.52;11.55;;;;;;;;;;4772003;30;20035;-83
2021/09/15 07:26:12;;;;;;;14.80;11.40;;;;;;;;;;4772198;30;20054;-86
2021/09/15 07:28:37;;;;;;;12.93;10.77;;;;;;;;;;4772010;30;20034;-85
2021/09/15 07:31:03;;;;;;;12.75;11.18;;;;;;;;;;4786716;30;20533;-83
2021/09/15 07:33:32;;;;;;;12.57;10.93;;;;;;;;;;4772305;30;20039;-83
2021/09/15 07:36:01;;;;;;;12.98;11.00;;;;;;;;;;4788441;30;20056;-83
2021/09/15 07:38:27;;;;;;;13.07;10.73;;;;;;;;;;4769208;30;20035;-83
2021/09/15 07:40:52;;;;;;;14.35;10.98;;;;;;;;;;4771448;30;20404;-86
2021/09/15 07:43:18;;;;;;;14.85;12.52;;;;;;;;;;4776930;30;20035;-83
2021/09/15 07:45:43;;;;;;;17.55;14.18;;;;;;;;;;4788448;30;20475;-83
2021/09/15 07:48:09;;;;;;;13.73;11.98;;;;;;;;;;4772583;30;20122;-83
2021/09/15 07:50:34;;;;;;;15.30;13.23;;;;;;;;;;4771664;30;20495;-86
2021/09/15 07:52:59;;;;;;;20.10;15.90;;;;;;;;;;4782800;30;20059;-86
2021/09/15 07:55:25;;;;;;;18.48;14.55;;;;;;;;;;4756869;30;20059;-86
2021/09/15 07:57:53;;;;;;;20.95;17.05;;;;;;;;;;4771993;30;20373;-86
2021/09/15 08:00:19;;;;;;;21.20;16.23;;;;;;;;;;4772217;30;20186;-83
2021/09/15 08:02:44;;;;;;;22.05;18.15;;;;;;;;;;4787472;30;20104;-86
2021/09/15 08:05:10;;;;;;;21.90;18.95;;;;;;;;;;4763135;30;20433;-86
2021/09/15 08:07:35;;;;;;;24.30;18.45;;;;;;;;;;4786426;29;20027;-83
2021/09/15 08:10:01;;;;;;;24.05;18.95;;;;;;;;;;4773887;30;20114;-84
2021/09/15 08:12:26;;;;;;;24.13;19.65;;;;;;;;;;4776065;30;20043;-84
2021/09/15 08:14:52;;;;;;;21.48;17.92;;;;;;;;;;4777845;30;20522;-86
2021/09/15 08:17:17;;;;;;;26.52;21.67;;;;;;;;;;4777732;30;20373;-85
2021/09/15 08:19:42;;;;;;;27.88;21.73;;;;;;;;;;4760473;30;20067;-86
2021/09/15 08:22:08;;;;;;;26.80;21.60;;;;;;;;;;4775842;30;20054;-84
2021/09/15 08:24:33;;;;;;;31.95;23.35;;;;;;;;;;4780680;30;20039;-85
2021/09/15 08:26:59;;;;;;;29.45;22.45;;;;;;;;;;4754882;30;20040;-83
2021/09/15 08:29:24;;;;;;;30.90;23.50;;;;;;;;;;4774953;30;20110;-86
2021/09/15 08:31:50;;;;;;;36.97;26.17;;;;;;;;;;4789768;30;20038;-86
2021/09/15 08:34:15;;;;;;;42.40;28.63;;;;;;;;;;4759700;30;20039;-83
2021/09/15 08:36:41;;;;;;;42.33;28.33;;;;;;;;;;4791013;30;20046;-83
2021/09/15 08:39:06;;;;;;;52.30;31.13;;;;;;;;;;4789442;30;20050;-84
2021/09/15 08:41:32;;;;;;;45.15;28.13;;;;;;;;;;4789417;30;20042;-86
2021/09/15 08:43:57;;;;;;;44.35;27.67;;;;;;;;;;4774873;30;20100;-84
2021/09/15 08:46:24;;;;;;;38.85;27.15;;;;;;;;;;4799061;29;20038;-83
2021/09/15 08:48:50;;;;;;;45.15;29.50;;;;;;;;;;4742895;30;20089;-84
2021/09/15 08:51:17;;;;;;;41.28;27.75;;;;;;;;;;4742777;30;20040;-82
2021/09/15 08:53:44;;;;;;;42.45;27.63;;;;;;;;;;4788817;30;20133;-86
2021/09/15 08:56:11;;;;;;;43.10;28.88;;;;;;;;;;4790889;30;20108;-84
2021/09/15 08:58:37;;;;;;;39.67;29.13;;;;;;;;;;4789842;30;20046;-86
2021/09/15 09:01:14;;;;;;;39.40;28.80;;;;;;;;;;4777133;30;20411;-86
2021/09/15 09:03:41;;;;;;;34.63;26.10;;;;;;;;;;4789724;30;20038;-83
2021/09/15 09:06:17;;;;;;;40.00;27.63;;;;;;;;;;4791047;30;20031;-83
2021/09/15 09:08:45;;;;;;;35.67;26.27;;;;;;;;;;4761934;30;20032;-85
2021/09/15 09:11:14;;;;;;;32.35;24.98;;;;;;;;;;4772579;30;20107;-85
2021/09/15 09:14:09;;;;;;;35.47;25.90;;;;;;;;;;4774579;30;20510;-82
2021/09/15 09:16:44;;;;;;;34.25;26.10;;;;;;;;;;4782230;30;20064;-83
2021/09/15 09:19:11;;;;;;;31.20;24.30;;;;;;;;;;4788166;29;20099;-83
2021/09/15 09:21:40;;;;;;;33.95;25.10;;;;;;;;;;4774032;30;20035;-83
2021/09/15 09:24:07;;;;;;;33.67;25.98;;;;;;;;;;4773975;30;20491;-84
2021/09/15 09:26:55;;;;;;;36.70;27.48;;;;;;;;;;4789011;30;20023;-86
2021/09/15 09:29:29;;;;;;;38.58;28.83;;;;;;;;;;4786820;30;20019;-83
2021/09/15 09:32:04;;;;;;;39.80;29.23;;;;;;;;;;4788896;30;20035;-85
2021/09/15 09:34:42;;;;;;;43.30;30.20;;;;;;;;;;4791548;30;20031;-83
2021/09/15 09:37:16;;;;;;;43.05;28.95;;;;;;;;;;4777288;30;20511;-83
2021/09/15 09:39:43;;;;;;;39.85;29.08;;;;;;;;;;4774554;30;20499;-86
2021/09/15 09:42:24;;;;;;;45.35;29.67;;;;;;;;;;4789342;30;20042;-83
2021/09/15 09:44:55;;;;;;;44.60;30.52;;;;;;;;;;4790088;30;20034;-86
2021/09/15 09:47:25;;;;;;;46.42;31.38;;;;;;;;;;4788493;30;20039;-83
2021/09/15 09:50:18;;;;;;;49.05;32.00;;;;;;;;;;4789102;30;20043;-85
2021/09/15 09:53:03;;;;;;;46.77;28.33;;;;;;;;;;4788485;30;20032;-85
2021/09/15 09:55:34;;;;;;;44.53;28.55;;;;;;;;;;4773580;30;20366;-84
2021/09/15 09:58:01;;;;;;;46.92;29.88;;;;;;;;;;4790417;30;20487;-83
2021/09/15 10:00:27;;;;;;;49.78;30.90;;;;;;;;;;4758193;30;20036;-84
2021/09/15 10:02:53;;;;;;;48.97;30.92;;;;;;;;;;4788956;30;20034;-84
2021/09/15 10:05:20;;;;;;;50.80;32.83;;;;;;;;;;4773088;30;20516;-83
2021/09/15 10:07:46;;;;;;;55.10;32.92;;;;;;;;;;4787398;30;20035;-86
2021/09/15 10:10:14;;;;;;;51.50;33.75;;;;;;;;;;4773251;30;20121;-83
2021/09/15 10:12:40;;;;;;;51.55;31.45;;;;;;;;;;4788672;30;20031;-85
2021/09/15 10:15:10;;;;;;;51.45;30.88;;;;;;;;;;4787739;30;20510;-86
2021/09/15 10:17:39;;;;;;;47.47;29.30;;;;;;;;;;4772994;30;20023;-83
2021/09/15 10:20:10;;;;;;;45.38;28.10;;;;;;;;;;4773662;30;20038;-86
2021/09/15 10:22:37;;;;;;;36.05;24.77;;;;;;;;;;4787871;30;20042;-83
2021/09/15 10:25:05;;;;;;;33.78;22.85;;;;;;;;;;4787971;30;20031;-85
2021/09/15 10:27:57;;;;;;;28.48;21.80;;;;;;;;;;4788993;30;20039;-84
2021/09/15 10:30:22;;;;;;;26.60;20.10;;;;;;;;;;4785183;30;20038;-84
2021/09/15 10:32:50;;;;;;;23.45;18.95;;;;;;;;;;4787476;29;20122;-86
2021/09/15 10:35:46;;;;;;;26.23;19.92;;;;;;;;;;4773420;30;20114;-83
2021/09/15 10:38:12;;;;;;;24.58;18.23;;;;;;;;;;4772816;30;20083;-83
2021/09/15 10:40:39;;;;;;;19.10;15.48;;;;;;;;;;4772728;30;20035;-86
2021/09/15 10:43:25;;;;;;;18.83;13.82;;;;;;;;;;4784183;30;20039;-83
2021/09/15 10:46:23;;;;;;;18.40;14.10;;;;;;;;;;4787776;30;20074;-86
2021/09/15 10:49:22;;;;;;;16.25;13.25;;;;;;;;;;4772925;30;20035;-83
2021/09/15 10:52:06;;;;;;;15.18;11.88;;;;;;;;;;4779981;30;20027;-84
2021/09/15 10:54:55;;;;;;;19.40;13.68;;;;;;;;;;4771471;30;20070;-83
2021/09/15 10:57:27;;;;;;;18.05;13.15;;;;;;;;;;4756796;30;20028;-83
2021/09/15 10:59:54;;;;;;;16.30;12.48;;;;;;;;;;4772215;30;20480;-84
2021/09/15 11:02:30;;;;;;;15.48;11.25;;;;;;;;;;4787777;30;20027;-84
2021/09/15 11:04:57;;;;;;;13.32;11.27;;;;;;;;;;4778265;30;20051;-83
2021/09/15 11:07:47;;;;;;;17.02;12.23;;;;;;;;;;4788661;30;20046;-86
2021/09/15 11:10:34;;;;;;;20.27;13.80;;;;;;;;;;4781407;30;20487;-84
2021/09/15 11:13:06;;;;;;;16.40;12.85;;;;;;;;;;4783560;30;20031;-83
2021/09/15 11:15:41;;;;;;;16.73;12.33;;;;;;;;;;4787088;30;20031;-87
2021/09/15 11:18:07;;;;;;;14.60;11.50;;;;;;;;;;4787314;30;20286;-84
2021/09/15 11:20:35;;;;;;;14.32;11.75;;;;;;;;;;4771411;30;20134;-86
2021/09/15 11:23:06;;;;;;;14.38;11.95;;;;;;;;;;4788109;30;20035;-83
2021/09/15 11:25:32;;;;;;;14.88;12.65;;;;;;;;;;4787713;30;20074;-83
2021/09/15 11:28:15;;;;;;;13.30;10.57;;;;;;;;;;4786855;30;20373;-85
2021/09/15 11:30:56;;;;;;;14.70;10.82;;;;;;;;;;4763624;30;20130;-86
2021/09/15 11:33:32;;;;;;;12.68;10.50;;;;;;;;;;4789115;30;20031;-83
2021/09/15 11:36:01;;;;;;;12.77;10.18;;;;;;;;;;4773710;30;20182;-83
2021/09/15 11:38:28;;;;;;;13.00;9.68;;;;;;;;;;4779604;30;20027;-83
2021/09/15 11:41:14;;;;;;;14.00;9.15;;;;;;;;;;4788551;30;20122;-85
2021/09/15 11:43:45;;;;;;;10.32;8.43;;;;;;;;;;4771649;30;20039;-85
2021/09/15 11:46:10;;;;;;;10.35;7.93;;;;;;;;;;4773054;30;20480;-84
2021/09/15 11:48:38;;;;;;;9.13;8.23;;;;;;;;;;4789600;30;20110;-85
2021/09/15 11:51:34;;;;;;;9.38;7.72;;;;;;;;;;4776145;30;20048;-84
2021/09/15 11:54:09;;;;;;;11.82;7.35;;;;;;;;;;4774882;30;20039;-85
2021/09/15 11:56:44;;;;;;;9.88;7.75;;;;;;;;;;4784454;30;20031;-83
2021/09/15 11:59:11;;;;;;;12.32;7.50;;;;;;;;;;4759516;30;20039;-84
2021/09/15 12:01:41;;;;;;;10.00;6.72;;;;;;;;;;4775224;30;20495;-83
2021/09/15 12:04:08;;;;;;;7.43;4.38;;;;;;;;;;4775173;30;20522;-85
2021/09/15 12:06:34;;;;;;;7.63;4.03;;;;;;;;;;4790811;30;20031;-83
2021/09/15 12:09:00;;;;;;;8.85;4.43;;;;;;;;;;4790699;30;20027;-87
2021/09/15 12:11:33;;;;;;;8.43;4.50;;;;;;;;;;4792599;30;20165;-86
2021/09/15 12:14:01;;;;;;;6.25;4.80;;;;;;;;;;4775327;30;20813;-84
2021/09/15 12:16:29;;;;;;;7.20;4.70;;;;;;;;;;4792670;30;20084;-84
2021/09/15 12:18:55;;;;;;;6.97;4.55;;;;;;;;;;4789863;30;20031;-85
2021/09/15 12:21:22;;;;;;;7.53;4.03;;;;;;;;;;4767870;30;20039;-85
2021/09/15 12:23:49;;;;;;;6.25;3.90;;;;;;;;;;4759829;30;20530;-85
2021/09/15 12:26:24;;;;;;;7.25;3.30;;;;;;;;;;4789973;30;20031;-84
2021/09/15 12:29:06;;;;;;;8.63;4.70;;;;;;;;;;4790641;30;20035;-86
2021/09/15 12:31:46;;;;;;;6.35;3.80;;;;;;;;;;4790789;30;20115;-84
2021/09/15 12:34:17;;;;;;;8.20;4.13;;;;;;;;;;4790266;30;20403;-83
2021/09/15 12:36:43;;;;;;;6.82;3.85;;;;;;;;;;4765894;30;20114;-86
2021/09/15 12:39:15;;;;;;;9.68;4.15;;;;;;;;;;4791214;30;20023;-84
2021/09/15 12:41:56;;;;;;;5.50;3.38;;;;;;;;;;4775804;30;20031;-86
2021/09/15 12:44:31;;;;;;;6.43;3.17;;;;;;;;;;4786429;30;20027;-85
2021/09/15 12:46:56;;;;;;;5.10;3.15;;;;;;;;;;4789517;30;20038;-86
2021/09/15 12:49:30;;;;;;;6.43;3.53;;;;;;;;;;4776114;30;20035;-84
2021/09/15 12:52:00;;;;;;;6.63;3.03;;;;;;;;;;4782072;30;20446;-84
2021/09/15 12:54:27;;;;;;;7.10;2.75;;;;;;;;;;4784280;30;20136;-85
2021/09/15 12:56:53;;;;;;;6.15;2.45;;;;;;;;;;4774725;30;20035;-83
2021/09/15 12:59:29;;;;;;;7.80;3.10;;;;;;;;;;4774104;30;20039;-85
2021/09/15 13:02:18;;;;;;;7.50;2.97;;;;;;;;;;4791211;30;20153;-84
2021/09/15 13:04:44;;;;;;;6.68;3.30;;;;;;;;;;4788637;30;20508;-85
2021/09/15 13:07:09;;;;;;;7.00;3.13;;;;;;;;;;4766666;30;20047;-85
2021/09/15 13:09:34;;;;;;;7.10;3.10;;;;;;;;;;4759450;30;20487;-84
2021/09/15 13:12:00;;;;;;;8.40;3.20;;;;;;;;;;4755548;30;20042;-86
2021/09/15 13:14:25;;;;;;;6.38;2.90;;;;;;;;;;4774604;30;20043;-84
2021/09/15 13:16:50;;;;;;;8.70;3.13;;;;;;;;;;4774668;30;20557;-83
2021/09/15 13:19:16;;;;;;;6.25;3.47;;;;;;;;;;4771533;30;20132;-84
2021/09/15 13:21:41;;;;;;;7.72;3.22;;;;;;;;;;4774374;30;20062;-86
2021/09/15 13:24:07;;;;;;;6.60;3.47;;;;;;;;;;4774003;30;20035;-86
2021/09/15 13:26:33;;;;;;;8.35;2.70;;;;;;;;;;4773446;30;20031;-84
2021/09/15 13:28:58;;;;;;;7.65;3.00;;;;;;;;;;4770719;30;20036;-86
2021/09/15 13:31:24;;;;;;;8.73;3.58;;;;;;;;;;4761934;30;20043;-83
2021/09/15 13:33:49;;;;;;;7.82;3.47;;;;;;;;;;4775062;30;20106;-84
2021/09/15 13:36:15;;;;;;;7.75;4.15;;;;;;;;;;4774149;30;20455;-87
2021/09/15 13:38:40;;;;;;;10.93;4.13;;;;;;;;;;4759479;30;20035;-84
2021/09/15 13:41:06;;;;;;;6.93;4.13;;;;;;;;;;4774115;30;20074;-84
2021/09/15 13:43:31;;;;;;;8.55;4.65;;;;;;;;;;4774339;30;20047;-84
2021/09/15 13:45:56;;;;;;;10.93;4.78;;;;;;;;;;4773946;30;20043;-84
2021/09/15 13:48:22;;;;;;;10.52;4.93;;;;;;;;;;4762483;30;20063;-84
2021/09/15 13:50:47;;;;;;;11.38;4.72;;;;;;;;;;4780343;30;20100;-83
2021/09/15 13:53:13;;;;;;;10.90;4.57;;;;;;;;;;4773884;30;20042;-86
2021/09/15 13:55:39;;;;;;;13.02;4.70;;;;;;;;;;4777536;30;20463;-83
2021/09/15 13:58:04;;;;;;;8.60;4.95;;;;;;;;;;4785795;30;20036;-85
2021/09/15 14:00:30;;;;;;;9.68;4.68;;;;;;;;;;4773331;30;20065;-84
2021/09/15 14:02:55;;;;;;;11.68;4.93;;;;;;;;;;4773979;30;20130;-84
2021/09/15 14:05:21;;;;;;;10.73;4.63;;;;;;;;;;4756241;30;20059;-86
2021/09/15 14:07:48;;;;;;;9.40;4.80;;;;;;;;;;4773272;30;20074;-84
2021/09/15 14:10:13;;;;;;;12.27;6.20;;;;;;;;;;4759029;30;20031;-83
2021/09/15 14:12:39;;;;;;;13.30;7.68;;;;;;;;;;4790017;30;20057;-84
2021/09/15 14:15:05;;;;;;;11.45;7.28;;;;;;;;;;4772702;30;20039;-86
2021/09/15 14:17:31;;;;;;;13.43;8.48;;;;;;;;;;4770417;30;20066;-84
2021/09/15 14:19:56;;;;;;;13.23;8.32;;;;;;;;;;4772799;30;21262;-84
2021/09/15 14:22:22;;;;;;;12.85;8.45;;;;;;;;;;4768866;30;20106;-87
2021/09/15 14:24:50;;;;;;;12.18;8.85;;;;;;;;;;4773861;30;20032;-84
2021/09/15 14:27:17;;;;;;;12.80;8.43;;;;;;;;;;4773272;30;20496;-86
2021/09/15 14:29:43;;;;;;;13.65;8.00;;;;;;;;;;4786189;30;20031;-84
2021/09/15 14:32:09;;;;;;;13.25;7.63;;;;;;;;;;4788940;30;20510;-84
2021/09/15 14:34:34;;;;;;;10.98;7.15;;;;;;;;;;4771021;29;20039;-84
2021/09/15 14:36:59;;;;;;;12.60;6.80;;;;;;;;;;4786364;29;20114;-83
2021/09/15 14:39:25;;;;;;;12.60;7.22;;;;;;;;;;4754772;30;20044;-83
2021/09/15 14:41:50;;;;;;;11.02;6.72;;;;;;;;;;4751435;30;20042;-83